createdAt,value
2022-10-18T00:07:46.605Z,99.90001
2022-10-18T00:38:04.382Z,99.90001
2022-10-18T01:08:21.773Z,99.90001
2022-10-18T01:38:39.812Z,99.90001
2022-10-18T02:08:57.317Z,99.90001
2022-10-18T02:39:14.078Z,99.90001
2022-10-18T03:09:32.280Z,99.90001
2022-10-18T03:39:49.954Z,99.90001
2022-10-18T04:10:06.550Z,99.90001
2022-10-18T04:40:24.232Z,99.90001
2022-10-18T05:10:42.234Z,99.90001
2022-10-18T05:40:59.022Z,99.90001
2022-10-18T06:11:17.424Z,99.90001
2022-10-18T06:41:36.049Z,99.90001
2022-10-18T07:11:54.142Z,99.90001
2022-10-18T07:42:13.877Z,99.90001
2022-10-18T08:12:34.357Z,99.90001
2022-10-18T08:42:50.936Z,99.90001
2022-10-18T09:13:08.645Z,99.90001
2022-10-18T09:43:26.581Z,99.90001
2022-10-18T10:13:49.736Z,96
2022-10-18T10:44:10.998Z,96.6
2022-10-18T11:14:27.820Z,96.90001
2022-10-18T11:44:56.334Z,96.90001
2022-10-18T12:15:10.639Z,83.4
2022-10-18T12:45:22.895Z,88.7
2022-10-18T13:15:39.234Z,87.6
2022-10-18T13:45:54.609Z,93.30001
2022-10-18T14:16:12.314Z,89.90001
2022-10-18T14:46:31.902Z,87.7
2022-10-18T15:16:47.845Z,90.4
2022-10-18T15:47:04.210Z,91.3
2022-10-18T16:17:20.224Z,92.7
2022-10-18T16:47:35.385Z,96
2022-10-18T17:17:52.439Z,97.1
2022-10-18T17:48:09.805Z,97.5
2022-10-18T18:18:27.689Z,99.3
2022-10-18T18:48:44.669Z,99.90001
2022-10-18T19:19:01.851Z,99.90001
2022-10-18T19:49:20.752Z,99.90001
2022-10-18T20:19:37.452Z,99.90001
2022-10-18T20:49:54.626Z,99.90001
2022-10-18T21:20:12.292Z,99.90001
2022-10-18T21:50:29.586Z,99.90001
2022-10-18T22:20:49.046Z,99.90001
2022-10-18T22:51:05.826Z,99.90001
2022-10-18T23:21:22.775Z,99.90001
2022-10-18T23:51:39.488Z,99.90001
